createdAt,value
2022-12-23T00:00:42.632Z,14.00
2022-12-23T00:03:09.864Z,12.70
2022-12-23T00:05:40.186Z,13.23
2022-12-23T00:08:08.203Z,14.20
2022-12-23T00:10:38.263Z,14.60
2022-12-23T00:13:23.710Z,14.53
2022-12-23T00:15:50.394Z,14.73
2022-12-23T00:18:17.142Z,15.17
2022-12-23T00:20:43.805Z,14.47
2022-12-23T00:23:10.491Z,14.37
2022-12-23T00:25:41.990Z,15.13
2022-12-23T00:28:17.104Z,14.07
2022-12-23T00:30:52.522Z,13.77
2022-12-23T00:33:21.923Z,14.53
2022-12-23T00:35:49.224Z,14.37
2022-12-23T00:38:17.206Z,13.90
2022-12-23T00:41:02.877Z,14.13
2022-12-23T00:43:29.544Z,15.17
2022-12-23T00:45:56.405Z,14.47
2022-12-23T00:48:41.596Z,14.57
2022-12-23T00:51:08.297Z,16.37
2022-12-23T00:53:34.944Z,15.33
2022-12-23T00:56:01.609Z,15.47
2022-12-23T00:58:28.343Z,16.23
2022-12-23T01:01:13.575Z,16.57
2022-12-23T01:03:58.966Z,15.57
2022-12-23T01:06:25.653Z,17.40
2022-12-23T01:08:52.329Z,16.07
2022-12-23T01:11:19.123Z,17.53
2022-12-23T01:13:45.778Z,17.73
2022-12-23T01:16:17.191Z,17.67
2022-12-23T01:18:45.069Z,17.67
2022-12-23T01:21:12.013Z,17.60
2022-12-23T01:23:38.718Z,18.00
2022-12-23T01:26:07.201Z,18.00
2022-12-23T01:28:35.252Z,19.37
2022-12-23T01:31:04.248Z,16.97
2022-12-23T01:33:32.031Z,18.30
2022-12-23T01:36:08.206Z,17.27
2022-12-23T01:38:35.426Z,18.00
2022-12-23T01:41:02.181Z,17.53
2022-12-23T01:43:48.869Z,18.00
2022-12-23T01:46:15.816Z,18.50
2022-12-23T01:48:48.952Z,18.17
2022-12-23T01:51:26.958Z,17.77
2022-12-23T01:53:59.265Z,16.50
2022-12-23T01:56:34.534Z,17.87
2022-12-23T01:59:08.504Z,16.57
2022-12-23T02:01:54.072Z,15.87
2022-12-23T02:04:24.819Z,17.13
2022-12-23T02:07:11.041Z,18.03
2022-12-23T02:09:39.831Z,17.37
2022-12-23T02:12:44.204Z,17.60
2022-12-23T02:15:37.570Z,18.57
2022-12-23T02:18:19.161Z,16.90
2022-12-23T02:21:11.216Z,16.57
2022-12-23T02:24:02.148Z,17.20
2022-12-23T02:27:00.188Z,16.50
2022-12-23T02:29:45.440Z,16.87
2022-12-23T02:32:23.621Z,17.27
2022-12-23T02:34:59.652Z,15.87
2022-12-23T02:38:00.363Z,16.33
2022-12-23T02:41:02.827Z,16.03
2022-12-23T02:43:39.447Z,16.20
2022-12-23T02:46:36.481Z,16.03
2022-12-23T02:49:26.240Z,16.53
2022-12-23T02:51:56.055Z,15.97
2022-12-23T02:54:36.093Z,16.07
2022-12-23T02:57:05.593Z,16.53
2022-12-23T02:59:46.496Z,18.03
2022-12-23T03:02:13.696Z,16.53
2022-12-23T03:04:42.098Z,19.27
2022-12-23T03:07:21.257Z,19.13
2022-12-23T03:10:08.792Z,17.20
2022-12-23T03:12:58.659Z,18.23
2022-12-23T03:15:40.964Z,15.77
2022-12-23T03:18:35.924Z,17.03
2022-12-23T03:21:17.515Z,17.87
2022-12-23T03:23:55.972Z,18.50
2022-12-23T03:26:38.552Z,18.00
2022-12-23T03:29:17.613Z,17.50
2022-12-23T03:31:45.551Z,19.13
2022-12-23T03:34:19.755Z,18.77
2022-12-23T03:36:51.012Z,20.30
2022-12-23T03:39:22.023Z,17.00
2022-12-23T03:41:54.053Z,19.50
2022-12-23T03:44:35.383Z,19.33
2022-12-23T03:47:09.190Z,20.53
2022-12-23T03:49:44.607Z,20.07
2022-12-23T03:52:21.288Z,21.63
2022-12-23T03:55:02.135Z,20.90
2022-12-23T03:58:10.308Z,22.03
2022-12-23T04:00:44.793Z,22.30
2022-12-23T04:03:43.433Z,22.13
2022-12-23T04:06:12.666Z,22.63
2022-12-23T04:08:41.435Z,24.33
2022-12-23T04:11:08.553Z,23.47
2022-12-23T04:13:35.292Z,26.67
2022-12-23T04:16:02.758Z,26.53
2022-12-23T04:18:30.007Z,24.23
2022-12-23T04:20:56.667Z,25.43
2022-12-23T04:23:23.404Z,26.73
2022-12-23T04:25:50.233Z,26.63
2022-12-23T04:28:18.239Z,27.20
2022-12-23T04:30:44.940Z,29.17
2022-12-23T04:33:12.576Z,30.30
2022-12-23T04:35:39.459Z,30.47
2022-12-23T04:38:06.556Z,29.77
2022-12-23T04:40:33.300Z,30.20
2022-12-23T04:42:59.970Z,30.40
2022-12-23T04:45:26.693Z,27.67
2022-12-23T04:47:54.602Z,29.53
2022-12-23T04:50:21.339Z,27.03
2022-12-23T04:52:47.996Z,29.47
2022-12-23T04:55:14.668Z,27.17
2022-12-23T04:57:41.418Z,28.33
2022-12-23T05:00:08.920Z,28.10
2022-12-23T05:02:35.706Z,30.07
2022-12-23T05:05:02.501Z,29.57
2022-12-23T05:07:29.184Z,27.23
2022-12-23T05:10:01.479Z,24.77
2022-12-23T05:12:29.903Z,26.03
2022-12-23T05:14:56.727Z,22.70
2022-12-23T05:17:23.491Z,23.77
2022-12-23T05:19:50.204Z,22.60
2022-12-23T05:22:16.861Z,22.97
2022-12-23T05:24:43.634Z,21.17
2022-12-23T05:27:10.335Z,22.60
2022-12-23T05:29:37.063Z,22.93
2022-12-23T05:32:04.019Z,23.03
2022-12-23T05:34:30.827Z,24.03
2022-12-23T05:36:57.512Z,23.97
2022-12-23T05:39:24.168Z,24.90
2022-12-23T05:41:50.917Z,24.57
2022-12-23T05:44:17.580Z,22.67
2022-12-23T05:46:44.304Z,22.47
2022-12-23T05:49:11.013Z,22.93
2022-12-23T05:51:37.683Z,20.17
2022-12-23T05:54:04.402Z,20.50
2022-12-23T05:56:31.158Z,22.37
2022-12-23T05:58:57.892Z,21.40
2022-12-23T06:01:24.566Z,23.53
2022-12-23T06:03:51.306Z,21.47
2022-12-23T06:06:18.185Z,21.83
2022-12-23T06:08:44.911Z,22.30
2022-12-23T06:11:12.930Z,21.50
2022-12-23T06:13:39.636Z,23.60
2022-12-23T06:16:06.797Z,23.80
2022-12-23T06:18:33.505Z,22.37
2022-12-23T06:21:00.177Z,22.83
2022-12-23T06:23:26.884Z,22.73
2022-12-23T06:26:00.976Z,25.03
2022-12-23T06:28:29.181Z,24.17
2022-12-23T06:30:57.203Z,23.27
2022-12-23T06:33:24.684Z,24.70
2022-12-23T06:35:51.534Z,23.90
2022-12-23T06:38:18.222Z,25.13
2022-12-23T06:40:44.938Z,24.83
2022-12-23T06:43:13.437Z,26.57
2022-12-23T06:45:40.588Z,25.47
2022-12-23T06:48:07.581Z,25.37
2022-12-23T06:50:34.260Z,25.87
2022-12-23T06:53:00.965Z,26.03
2022-12-23T06:55:27.691Z,24.60
2022-12-23T06:57:54.410Z,24.97
2022-12-23T07:00:21.139Z,24.60
2022-12-23T07:02:48.212Z,26.40
2022-12-23T07:05:17.942Z,24.03
2022-12-23T07:07:44.715Z,25.37
2022-12-23T07:10:12.809Z,24.77
2022-12-23T07:12:39.564Z,24.50
2022-12-23T07:15:07.208Z,24.27
2022-12-23T07:17:33.960Z,22.97
2022-12-23T07:20:00.923Z,28.92
2022-12-23T07:22:27.610Z,23.37
2022-12-23T07:24:54.319Z,22.50
2022-12-23T07:27:21.120Z,21.57
2022-12-23T07:29:47.832Z,20.73
2022-12-23T07:32:18.812Z,19.80
2022-12-23T07:34:45.471Z,19.43
2022-12-23T07:37:12.314Z,20.80
2022-12-23T07:39:39.031Z,19.87
2022-12-23T07:44:52.408Z,18.37
2022-12-23T07:47:19.059Z,20.83
2022-12-23T07:49:45.771Z,20.43
2022-12-23T07:52:12.434Z,21.23
2022-12-23T07:54:39.088Z,18.97
2022-12-23T07:57:05.789Z,18.83
2022-12-23T07:59:32.449Z,20.00
2022-12-23T08:01:59.300Z,19.17
2022-12-23T08:04:26.104Z,17.43
2022-12-23T08:06:52.872Z,20.23
2022-12-23T08:09:19.676Z,19.43
2022-12-23T08:11:49.227Z,18.53
2022-12-23T08:14:16.017Z,20.57
2022-12-23T08:16:45.434Z,19.57
2022-12-23T08:19:12.176Z,20.87
2022-12-23T08:21:38.902Z,21.00
2022-12-23T08:24:06.042Z,21.10
2022-12-23T08:26:33.483Z,21.33
2022-12-23T08:29:00.698Z,22.07
2022-12-23T08:31:32.058Z,22.90
2022-12-23T08:34:00.591Z,23.50
2022-12-23T08:36:35.538Z,22.73
2022-12-23T08:39:06.587Z,22.03
2022-12-23T08:41:37.555Z,21.87
2022-12-23T08:44:04.733Z,23.27
2022-12-23T08:46:31.693Z,22.10
2022-12-23T08:48:58.685Z,23.27
2022-12-23T08:51:25.907Z,24.43
2022-12-23T08:54:00.121Z,23.93
2022-12-23T08:56:34.198Z,24.53
2022-12-23T08:59:02.044Z,22.90
2022-12-23T09:01:31.503Z,23.23
2022-12-23T09:03:58.620Z,24.00
2022-12-23T09:06:31.773Z,24.17
2022-12-23T09:09:00.091Z,23.13
2022-12-23T09:11:29.494Z,24.50
2022-12-23T09:14:01.749Z,24.50
2022-12-23T09:16:31.949Z,26.07
2022-12-23T09:18:58.871Z,25.37
2022-12-23T09:21:25.881Z,26.17
2022-12-23T09:23:52.958Z,26.47
2022-12-23T09:26:25.783Z,25.67
2022-12-23T09:28:53.077Z,26.73
2022-12-23T09:31:20.837Z,27.00
2022-12-23T09:33:49.824Z,28.87
2022-12-23T09:36:17.265Z,27.47
2022-12-23T09:38:44.016Z,27.07
2022-12-23T09:41:29.933Z,26.17
2022-12-23T09:44:23.696Z,28.33
2022-12-23T09:47:06.196Z,28.77
2022-12-23T09:49:34.291Z,27.77
2022-12-23T09:52:05.374Z,28.33
2022-12-23T09:54:58.540Z,28.37
2022-12-23T09:57:36.322Z,28.97
2022-12-23T10:00:13.908Z,29.80
2022-12-23T10:03:18.331Z,29.50
2022-12-23T10:06:12.889Z,28.47
2022-12-23T10:08:48.849Z,28.23
2022-12-23T10:11:23.926Z,27.90
2022-12-23T10:13:58.333Z,30.63
2022-12-23T10:16:32.334Z,31.80
2022-12-23T10:19:04.167Z,29.87
2022-12-23T10:21:50.296Z,33.00
2022-12-23T10:24:20.765Z,30.50
2022-12-23T10:26:56.290Z,30.93
2022-12-23T10:29:30.524Z,32.73
2022-12-23T10:32:15.555Z,32.63
2022-12-23T10:35:08.817Z,32.53
2022-12-23T10:38:23.186Z,31.70
2022-12-23T10:41:10.039Z,30.90
2022-12-23T10:44:11.161Z,31.80
2022-12-23T10:47:00.761Z,30.50
2022-12-23T10:49:49.115Z,32.37
2022-12-23T10:52:20.620Z,33.53
2022-12-23T10:54:48.308Z,33.23
2022-12-23T10:57:16.967Z,32.83
2022-12-23T10:59:44.067Z,33.93
2022-12-23T11:02:13.732Z,34.77
2022-12-23T11:04:48.768Z,32.10
2022-12-23T11:10:17.061Z,31.13
2022-12-23T11:12:49.907Z,33.60
2022-12-23T11:15:36.404Z,30.90
2022-12-23T11:18:16.315Z,29.50
2022-12-23T11:21:03.420Z,31.50
2022-12-23T11:23:36.549Z,30.80
2022-12-23T11:26:05.343Z,29.10
2022-12-23T11:28:34.213Z,30.00
2022-12-23T11:31:11.781Z,28.53
2022-12-23T11:33:45.490Z,29.30
2022-12-23T11:36:23.959Z,26.97
2022-12-23T11:39:13.471Z,25.50
2022-12-23T11:41:47.580Z,24.10
2022-12-23T11:44:25.992Z,23.80
2022-12-23T11:46:52.846Z,22.53
2022-12-23T11:49:33.716Z,23.80
2022-12-23T11:52:13.899Z,24.63
2022-12-23T11:54:40.752Z,21.83
2022-12-23T11:57:16.573Z,21.83
2022-12-23T11:59:48.957Z,19.50
2022-12-23T12:02:21.796Z,20.53
2022-12-23T12:05:02.569Z,19.27
2022-12-23T12:07:30.767Z,19.03
2022-12-23T12:10:00.058Z,17.93
2022-12-23T12:12:29.213Z,15.93
2022-12-23T12:14:58.844Z,17.43
2022-12-23T12:17:41.134Z,17.50
2022-12-23T12:20:40.883Z,16.37
2022-12-23T12:23:24.545Z,16.07
2022-12-23T12:26:01.186Z,16.43
2022-12-23T12:28:48.550Z,17.27
2022-12-23T12:31:32.245Z,17.07
2022-12-23T12:34:24.790Z,16.23
2022-12-23T12:37:00.093Z,17.33
2022-12-23T12:39:41.042Z,17.97
2022-12-23T12:42:21.477Z,18.30
2022-12-23T12:45:10.000Z,19.37
2022-12-23T12:48:06.980Z,19.90
2022-12-23T12:50:34.667Z,21.13
2022-12-23T12:53:11.556Z,21.67
2022-12-23T12:55:46.180Z,21.90
2022-12-23T12:58:20.006Z,22.40
2022-12-23T13:00:51.513Z,22.27
2022-12-23T13:03:41.450Z,22.37
2022-12-23T13:06:11.528Z,23.50
2022-12-23T13:09:07.645Z,23.03
2022-12-23T13:11:58.423Z,25.37
2022-12-23T13:14:47.958Z,27.77
2022-12-23T13:17:29.819Z,25.60
2022-12-23T13:20:20.983Z,24.63
2022-12-23T13:22:54.093Z,23.13
2022-12-23T13:25:20.978Z,23.03
2022-12-23T13:27:57.594Z,24.50
2022-12-23T13:30:28.608Z,24.20
2022-12-23T13:33:29.203Z,24.60
2022-12-23T13:36:27.349Z,26.37
2022-12-23T13:39:13.116Z,24.03
2022-12-23T13:41:49.083Z,25.20
2022-12-23T13:44:18.864Z,24.53
2022-12-23T13:46:50.707Z,26.73
2022-12-23T13:49:41.634Z,24.07
2022-12-23T13:52:31.985Z,26.13
2022-12-23T13:55:32.690Z,25.60
2022-12-23T13:58:17.465Z,25.10
2022-12-23T14:00:44.925Z,24.90
2022-12-23T14:03:18.094Z,24.20
2022-12-23T14:05:50.366Z,25.40
2022-12-23T14:08:22.108Z,27.47
2022-12-23T14:10:55.048Z,24.83
2022-12-23T14:13:25.322Z,24.67
2022-12-23T14:16:04.247Z,24.37
2022-12-23T14:18:58.269Z,24.73
2022-12-23T14:21:43.321Z,23.87
2022-12-23T14:24:28.789Z,26.03
2022-12-23T14:27:33.331Z,24.07
2022-12-23T14:30:15.306Z,25.73
2022-12-23T14:32:52.084Z,25.13
2022-12-23T14:35:48.216Z,25.63
2022-12-23T14:38:14.989Z,24.10
2022-12-23T14:40:55.201Z,23.70
2022-12-23T14:43:51.236Z,23.60
2022-12-23T14:46:44.384Z,21.70
2022-12-23T14:49:39.141Z,23.57
2022-12-23T14:52:38.077Z,21.63
2022-12-23T14:55:32.967Z,22.70
2022-12-23T14:58:13.244Z,23.40
2022-12-23T15:01:17.632Z,23.93
2022-12-23T15:03:57.574Z,24.00
2022-12-23T15:06:41.024Z,22.67
2022-12-23T15:09:18.652Z,22.90
2022-12-23T15:11:45.398Z,23.67
2022-12-23T15:14:25.417Z,23.10
2022-12-23T15:16:52.215Z,23.07
2022-12-23T15:19:22.995Z,22.17
2022-12-23T15:21:56.748Z,20.90
2022-12-23T15:24:27.105Z,20.63
2022-12-23T15:27:24.763Z,21.23
2022-12-23T15:29:47.467Z,21.30
2022-12-23T15:32:14.225Z,21.13
2022-12-23T15:34:41.543Z,21.57
2022-12-23T15:37:13.228Z,22.97
2022-12-23T15:39:43.855Z,23.03
2022-12-23T15:42:46.347Z,22.87
2022-12-23T15:45:40.847Z,21.33
2022-12-23T15:48:28.859Z,21.67
2022-12-23T15:51:21.950Z,24.27
2022-12-23T15:54:04.816Z,25.30
2022-12-23T15:56:34.886Z,26.30
2022-12-23T15:59:03.768Z,25.00
2022-12-23T16:01:39.495Z,26.40
2022-12-23T16:04:08.861Z,24.67
2022-12-23T16:06:37.259Z,23.17
2022-12-23T16:09:06.048Z,24.13
2022-12-23T16:11:59.147Z,24.60
2022-12-23T16:14:42.440Z,23.53
2022-12-23T16:17:09.177Z,22.57
2022-12-23T16:19:55.094Z,23.47
2022-12-23T16:22:34.478Z,23.03
2022-12-23T16:25:16.940Z,23.33
2022-12-23T16:27:50.266Z,22.43
2022-12-23T16:30:29.160Z,22.93
2022-12-23T16:32:58.622Z,26.15
2022-12-23T16:35:28.357Z,24.23
2022-12-23T16:38:11.365Z,31.05
2022-12-23T16:40:38.161Z,22.33
2022-12-23T16:43:05.153Z,26.03
2022-12-23T16:45:33.464Z,24.50
2022-12-23T16:48:00.737Z,24.47
2022-12-23T16:50:27.742Z,24.70
2022-12-23T16:52:54.454Z,26.27
2022-12-23T16:55:21.139Z,27.23
2022-12-23T16:57:47.886Z,27.63
2022-12-23T17:00:17.449Z,27.33
2022-12-23T17:02:45.954Z,27.87
2022-12-23T17:05:20.705Z,26.33
2022-12-23T17:07:47.966Z,29.37
2022-12-23T17:10:17.107Z,26.90
2022-12-23T17:12:45.279Z,27.17
2022-12-23T17:15:25.980Z,28.70
2022-12-23T17:17:54.311Z,31.27
2022-12-23T17:20:22.971Z,30.87
2022-12-23T17:22:53.468Z,31.40
2022-12-23T17:25:26.664Z,33.33
2022-12-23T17:27:55.528Z,31.27
2022-12-23T17:30:25.241Z,34.50
2022-12-23T17:32:56.860Z,30.70
2022-12-23T17:35:25.077Z,30.33
2022-12-23T17:37:51.960Z,31.60
2022-12-23T17:40:19.831Z,29.13
2022-12-23T17:42:47.497Z,33.03
2022-12-23T17:45:25.747Z,32.00
2022-12-23T17:47:52.791Z,30.40
2022-12-23T17:50:20.716Z,29.73
2022-12-23T17:52:47.785Z,32.90
2022-12-23T17:55:32.800Z,30.47
2022-12-23T17:57:59.617Z,32.83
2022-12-23T18:00:33.984Z,30.50
2022-12-23T18:03:01.523Z,37.47
2022-12-23T18:05:30.639Z,34.20
2022-12-23T18:07:59.045Z,31.77
2022-12-23T18:10:32.722Z,33.70
2022-12-23T18:13:06.106Z,28.17
2022-12-23T18:15:36.271Z,27.63
2022-12-23T18:18:17.805Z,27.57
2022-12-23T18:20:49.969Z,27.80
2022-12-23T18:23:25.000Z,31.53
2022-12-23T18:25:51.787Z,29.00
2022-12-23T18:28:18.556Z,31.03
2022-12-23T18:30:45.466Z,28.90
2022-12-23T18:33:13.207Z,28.87
2022-12-23T18:35:44.011Z,31.30
2022-12-23T18:38:11.454Z,30.10
2022-12-23T18:40:39.330Z,32.40
2022-12-23T18:43:06.580Z,35.03
2022-12-23T18:45:38.487Z,34.03
2022-12-23T18:48:07.424Z,37.83
2022-12-23T18:50:36.811Z,38.83
2022-12-23T18:53:04.045Z,36.03
2022-12-23T18:55:30.959Z,36.73
2022-12-23T18:57:59.315Z,35.03
2022-12-23T19:00:30.998Z,34.03
2022-12-23T19:02:57.866Z,32.73
2022-12-23T19:05:27.544Z,31.67
2022-12-23T19:07:56.345Z,31.57
2022-12-23T19:10:29.492Z,32.10
2022-12-23T19:12:56.496Z,30.30
2022-12-23T19:15:23.884Z,30.67
2022-12-23T19:17:50.618Z,31.53
2022-12-23T19:20:18.840Z,31.43
2022-12-23T19:22:46.961Z,31.73
2022-12-23T19:25:16.859Z,31.90
2022-12-23T19:27:45.091Z,30.50
2022-12-23T19:30:17.864Z,27.13
2022-12-23T19:32:46.780Z,24.83
2022-12-23T19:35:14.842Z,24.97
2022-12-23T19:37:42.254Z,24.57
2022-12-23T19:40:09.960Z,23.83
2022-12-23T19:42:40.323Z,25.43
2022-12-23T19:45:08.967Z,27.73
2022-12-23T19:47:35.975Z,24.13
2022-12-23T19:50:03.383Z,21.37
2022-12-23T19:52:30.344Z,23.03
2022-12-23T19:54:57.028Z,20.13
2022-12-23T19:57:24.400Z,22.57
2022-12-23T19:59:51.081Z,22.27
2022-12-23T20:02:20.007Z,20.70
2022-12-23T20:04:47.031Z,20.20
2022-12-23T20:07:13.753Z,19.83
2022-12-23T20:09:40.510Z,20.83
2022-12-23T20:12:07.369Z,18.43
2022-12-23T20:14:34.609Z,20.00
2022-12-23T20:17:01.475Z,18.73
2022-12-23T20:19:28.525Z,17.30
2022-12-23T20:21:57.857Z,18.53
2022-12-23T20:24:24.529Z,18.70
2022-12-23T20:26:51.227Z,20.10
2022-12-23T20:29:17.893Z,21.17
2022-12-23T20:31:44.670Z,18.10
2022-12-23T20:34:15.591Z,20.30
2022-12-23T20:36:45.025Z,19.30
2022-12-23T20:39:17.885Z,19.10
2022-12-23T20:41:44.662Z,20.03
2022-12-23T20:46:58.146Z,19.23
2022-12-23T20:49:24.905Z,19.17
2022-12-23T20:51:51.588Z,16.30
2022-12-23T20:54:24.961Z,18.50
2022-12-23T20:57:01.143Z,18.20
2022-12-23T20:59:27.910Z,18.80
2022-12-23T21:01:55.058Z,20.20
2022-12-23T21:04:24.574Z,19.03
2022-12-23T21:06:52.661Z,18.90
2022-12-23T21:09:19.535Z,18.80
2022-12-23T21:11:47.678Z,20.70
2022-12-23T21:14:19.525Z,17.33
2022-12-23T21:16:46.590Z,17.87
2022-12-23T21:19:16.809Z,18.57
2022-12-23T21:21:43.969Z,17.97
2022-12-23T21:24:14.135Z,16.57
2022-12-23T21:26:42.093Z,18.90
2022-12-23T21:29:12.508Z,17.60
2022-12-23T21:31:40.924Z,18.73
2022-12-23T21:34:08.012Z,18.03
2022-12-23T21:36:37.587Z,17.77
2022-12-23T21:39:06.434Z,17.67
2022-12-23T21:41:38.209Z,16.93
2022-12-23T21:44:05.656Z,17.03
2022-12-23T21:46:35.176Z,17.30
2022-12-23T21:49:02.373Z,16.77
2022-12-23T21:51:39.090Z,14.70
2022-12-23T21:54:08.078Z,13.93
2022-12-23T21:56:35.681Z,14.63
2022-12-23T21:59:08.564Z,14.83
2022-12-23T22:01:35.430Z,14.13
2022-12-23T22:04:05.596Z,11.90
2022-12-23T22:06:37.655Z,10.83
2022-12-23T22:09:07.863Z,11.17
2022-12-23T22:11:36.324Z,10.50
2022-12-23T22:14:04.829Z,10.67
2022-12-23T22:16:32.432Z,10.10
2022-12-23T22:19:00.793Z,11.43
2022-12-23T22:21:30.150Z,10.13
2022-12-23T22:23:57.518Z,9.80
2022-12-23T22:26:30.018Z,9.40
2022-12-23T22:29:02.101Z,10.33
2022-12-23T22:31:36.736Z,8.73
2022-12-23T22:34:04.641Z,9.47
2022-12-23T22:36:32.120Z,8.83
2022-12-23T22:39:00.533Z,9.73
2022-12-23T22:41:28.925Z,9.87
2022-12-23T22:43:57.098Z,8.77
2022-12-23T22:46:25.427Z,9.53
2022-12-23T22:48:52.704Z,9.40
2022-12-23T22:51:24.555Z,8.97
2022-12-23T22:53:51.383Z,13.10
2022-12-23T22:56:20.745Z,12.40
2022-12-23T22:58:48.310Z,10.23
2022-12-23T23:01:40.643Z,9.93
2022-12-23T23:04:10.268Z,10.23
2022-12-23T23:06:38.585Z,10.13
2022-12-23T23:09:11.531Z,11.13
2022-12-23T23:11:38.337Z,11.97
2022-12-23T23:14:05.175Z,10.63
2022-12-23T23:16:32.249Z,11.47
2022-12-23T23:18:59.950Z,10.27
2022-12-23T23:21:26.794Z,11.17
2022-12-23T23:23:53.506Z,10.43
2022-12-23T23:26:20.863Z,8.33
2022-12-23T23:28:47.771Z,8.10
2022-12-23T23:31:41.240Z,9.33
2022-12-23T23:34:01.450Z,7.67
2022-12-23T23:36:28.263Z,7.53
2022-12-23T23:38:55.062Z,7.70
2022-12-23T23:41:23.805Z,7.70
2022-12-23T23:43:51.499Z,8.40
2022-12-23T23:46:19.551Z,6.97
2022-12-23T23:48:46.353Z,7.17
2022-12-23T23:51:13.067Z,7.80
2022-12-23T23:53:40.380Z,7.17
2022-12-23T23:56:08.628Z,6.13
2022-12-23T23:58:36.740Z,7.40
